createdAt,value
2017-08-17T00:00:40.641Z,18.36
2017-08-17T00:01:40.636Z,18.47
2017-08-17T00:02:40.634Z,18.47
2017-08-17T00:03:40.625Z,18.41
2017-08-17T00:04:40.618Z,18.46
2017-08-17T00:05:40.615Z,18.29
2017-08-17T00:06:40.609Z,18.35
2017-08-17T00:07:40.604Z,18.35
2017-08-17T00:08:40.600Z,18.31
2017-08-17T00:09:40.594Z,18.34
2017-08-17T00:10:40.591Z,18.36
2017-08-17T00:11:40.590Z,18.35
2017-08-17T00:12:40.583Z,18.32
2017-08-17T00:13:40.579Z,18.32
2017-08-17T00:14:40.574Z,18.29
2017-08-17T00:15:40.572Z,18.29
2017-08-17T00:16:40.563Z,18.34
2017-08-17T00:17:40.563Z,18.31
2017-08-17T00:18:40.556Z,18.47
2017-08-17T00:19:40.548Z,18.42
2017-08-17T00:20:40.543Z,18.49
2017-08-17T00:21:40.535Z,18.47
2017-08-17T00:22:40.532Z,18.38
2017-08-17T00:23:40.529Z,18.51
2017-08-17T00:24:40.520Z,18.50
2017-08-17T00:25:40.516Z,18.39
2017-08-17T00:26:40.512Z,18.42
2017-08-17T00:27:40.510Z,18.46
2017-08-17T00:28:40.507Z,18.49
2017-08-17T00:29:40.502Z,18.47
2017-08-17T00:30:40.497Z,18.41
2017-08-17T00:31:40.490Z,18.49
2017-08-17T00:32:40.485Z,18.50
2017-08-17T00:33:40.480Z,18.50
2017-08-17T00:34:40.477Z,18.54
2017-08-17T00:35:40.468Z,18.51
2017-08-17T00:36:40.461Z,18.60
2017-08-17T00:37:40.459Z,18.69
2017-08-17T00:38:40.452Z,18.69
2017-08-17T00:39:40.447Z,18.62
2017-08-17T00:40:40.444Z,18.79
2017-08-17T00:41:40.436Z,18.82
2017-08-17T00:42:40.433Z,18.84
2017-08-17T00:43:40.433Z,18.78
2017-08-17T00:44:40.426Z,18.79
2017-08-17T00:45:40.423Z,18.78
2017-08-17T00:46:40.416Z,18.83
2017-08-17T00:47:40.414Z,18.82
2017-08-17T00:48:40.755Z,18.83
2017-08-17T00:49:40.403Z,19.01
2017-08-17T00:50:40.397Z,18.96
2017-08-17T00:51:40.387Z,19.02
2017-08-17T00:52:40.384Z,18.99
2017-08-17T00:53:40.378Z,18.97
2017-08-17T00:54:40.376Z,18.87
2017-08-17T00:55:40.376Z,18.91
2017-08-17T00:56:40.370Z,18.89
2017-08-17T00:57:40.364Z,19.02
2017-08-17T00:58:40.358Z,18.90
2017-08-17T00:59:40.349Z,18.91
2017-08-17T01:00:40.345Z,18.87
2017-08-17T01:01:40.340Z,18.87
2017-08-17T01:02:40.337Z,18.84
2017-08-17T01:03:40.330Z,18.83
2017-08-17T01:04:40.326Z,18.84
2017-08-17T01:05:40.320Z,18.91
2017-08-17T01:06:40.317Z,18.87
2017-08-17T01:07:40.317Z,18.86
2017-08-17T01:08:40.310Z,18.90
2017-08-17T01:09:40.307Z,18.83
2017-08-17T01:10:40.301Z,18.76
2017-08-17T01:11:40.296Z,18.87
2017-08-17T01:12:40.293Z,18.87
2017-08-17T01:13:40.285Z,18.84
2017-08-17T01:14:40.282Z,18.82
2017-08-17T01:15:40.275Z,18.79
2017-08-17T01:16:40.267Z,18.82
2017-08-17T01:17:40.263Z,18.74
2017-08-17T01:18:40.257Z,18.69
2017-08-17T01:19:40.256Z,18.68
2017-08-17T01:20:40.248Z,18.72
2017-08-17T01:21:40.245Z,18.66
2017-08-17T01:22:40.238Z,18.71
2017-08-17T01:23:40.238Z,18.69
2017-08-17T01:24:40.235Z,18.68
2017-08-17T01:25:40.227Z,18.62
2017-08-17T01:26:40.226Z,18.68
2017-08-17T01:27:40.220Z,18.62
2017-08-17T01:28:40.213Z,18.57
2017-08-17T01:29:40.209Z,18.64
2017-08-17T01:30:40.209Z,18.69
2017-08-17T01:31:40.196Z,18.62
2017-08-17T01:32:40.192Z,18.65
2017-08-17T01:33:40.184Z,18.68
2017-08-17T01:34:40.182Z,18.60
2017-08-17T01:35:40.175Z,18.71
2017-08-17T01:36:40.172Z,18.64
2017-08-17T01:37:40.164Z,18.64
2017-08-17T01:38:40.163Z,18.64
2017-08-17T01:39:40.162Z,18.65
2017-08-17T01:40:40.154Z,18.62
2017-08-17T01:41:40.152Z,18.60
2017-08-17T01:42:40.145Z,18.62
2017-08-17T01:43:40.140Z,18.54
2017-08-17T01:44:40.136Z,18.53
2017-08-17T01:45:40.130Z,18.50
2017-08-17T01:46:40.127Z,18.47
2017-08-17T01:47:40.118Z,18.49
2017-08-17T01:48:40.109Z,18.46
2017-08-17T01:49:40.157Z,18.38
2017-08-17T01:50:40.101Z,18.49
2017-08-17T01:51:40.102Z,18.47
2017-08-17T01:52:40.090Z,18.38
2017-08-17T01:53:40.086Z,18.42
2017-08-17T01:54:40.081Z,18.47
2017-08-17T01:55:40.080Z,18.49
2017-08-17T01:56:40.075Z,18.41
2017-08-17T01:57:40.069Z,18.41
2017-08-17T01:58:40.068Z,18.32
2017-08-17T01:59:40.057Z,18.32
2017-08-17T02:00:40.049Z,18.46
2017-08-17T02:01:40.046Z,18.38
2017-08-17T02:02:40.039Z,18.50
2017-08-17T02:03:40.039Z,18.31
2017-08-17T02:04:41.637Z,18.32
2017-08-17T02:05:40.028Z,18.26
2017-08-17T02:06:40.025Z,18.34
2017-08-17T02:07:40.018Z,18.34
2017-08-17T02:08:40.016Z,18.34
2017-08-17T02:09:40.007Z,18.32
2017-08-17T02:10:40.003Z,18.29
2017-08-17T02:11:39.995Z,18.25
2017-08-17T02:12:39.987Z,18.21
2017-08-17T02:13:39.984Z,18.19
2017-08-17T02:14:39.977Z,18.23
2017-08-17T02:15:39.973Z,18.23
2017-08-17T02:16:39.969Z,18.17
2017-08-17T02:17:39.961Z,18.17
2017-08-17T02:18:39.957Z,18.13
2017-08-17T02:19:39.958Z,18.09
2017-08-17T02:20:39.949Z,18.10
2017-08-17T02:21:39.947Z,18.04
2017-08-17T02:22:39.939Z,18.10
2017-08-17T02:23:39.937Z,18.14
2017-08-17T02:24:39.928Z,18.13
2017-08-17T02:25:39.926Z,18.16
2017-08-17T02:26:39.919Z,18.14
2017-08-17T02:27:39.909Z,18.05
2017-08-17T02:28:39.909Z,18.10
2017-08-17T02:29:39.899Z,18.16
2017-08-17T02:30:39.896Z,18.13
2017-08-17T02:31:39.890Z,18.11
2017-08-17T02:32:39.882Z,18.05
2017-08-17T02:33:39.879Z,18.04
2017-08-17T02:34:39.871Z,18.04
2017-08-17T02:35:39.872Z,18.05
2017-08-17T02:36:39.868Z,17.92
2017-08-17T02:37:39.861Z,17.96
2017-08-17T02:38:39.857Z,17.95
2017-08-17T02:39:39.850Z,17.92
2017-08-17T02:40:39.845Z,18.02
2017-08-17T02:41:39.839Z,17.92
2017-08-17T02:42:39.835Z,17.80
2017-08-17T02:43:39.827Z,17.87
2017-08-17T02:44:39.817Z,17.86
2017-08-17T02:45:39.815Z,17.87
2017-08-17T02:46:39.808Z,17.91
2017-08-17T02:47:39.803Z,17.83
2017-08-17T02:48:39.797Z,17.83
2017-08-17T02:49:39.792Z,17.92
2017-08-17T02:50:39.787Z,17.86
2017-08-17T02:51:39.787Z,17.86
2017-08-17T02:52:39.777Z,17.86
2017-08-17T02:53:39.776Z,17.77
2017-08-17T02:54:39.768Z,17.76
2017-08-17T02:55:39.765Z,17.80
2017-08-17T02:56:39.760Z,17.79
2017-08-17T02:57:39.753Z,17.80
2017-08-17T02:58:39.747Z,17.76
2017-08-17T02:59:39.737Z,17.71
2017-08-17T03:00:40.082Z,17.79
2017-08-17T03:01:39.725Z,17.84
2017-08-17T03:02:39.723Z,17.83
2017-08-17T03:03:39.721Z,17.79
2017-08-17T03:04:39.713Z,17.81
2017-08-17T03:05:39.710Z,17.73
2017-08-17T03:06:39.702Z,17.77
2017-08-17T03:07:39.691Z,17.76
2017-08-17T03:08:39.687Z,17.62
2017-08-17T03:09:39.681Z,17.60
2017-08-17T03:10:39.680Z,17.58
2017-08-17T03:11:39.670Z,17.68
2017-08-17T03:12:39.666Z,17.66
2017-08-17T03:13:39.659Z,17.55
2017-08-17T03:14:39.656Z,17.53
2017-08-17T03:15:39.654Z,17.57
2017-08-17T03:16:39.646Z,17.62
2017-08-17T03:17:39.643Z,17.51
2017-08-17T03:18:39.636Z,17.55
2017-08-17T03:19:39.630Z,17.51
2017-08-17T03:20:39.630Z,17.57
2017-08-17T03:21:39.617Z,17.55
2017-08-17T03:22:39.617Z,17.60
2017-08-17T03:23:39.606Z,17.62
2017-08-17T03:24:39.598Z,17.58
2017-08-17T03:25:39.596Z,17.47
2017-08-17T03:26:39.587Z,17.49
2017-08-17T03:27:39.582Z,17.49
2017-08-17T03:28:39.574Z,17.51
2017-08-17T03:29:39.572Z,17.51
2017-08-17T03:30:39.564Z,17.49
2017-08-17T03:31:39.563Z,17.45
2017-08-17T03:32:39.559Z,17.49
2017-08-17T03:33:39.551Z,17.47
2017-08-17T03:34:39.549Z,17.51
2017-08-17T03:35:39.541Z,17.47
2017-08-17T03:36:39.835Z,17.53
2017-08-17T03:37:39.531Z,17.49
2017-08-17T03:38:39.522Z,17.57
2017-08-17T03:39:39.513Z,17.57
2017-08-17T03:40:39.516Z,17.54
2017-08-17T03:41:39.502Z,17.57
2017-08-17T03:42:39.499Z,17.49
2017-08-17T03:43:39.491Z,17.49
2017-08-17T03:44:39.487Z,17.53
2017-08-17T03:45:39.485Z,17.47
2017-08-17T03:46:39.475Z,17.47
2017-08-17T03:47:39.475Z,17.47
2017-08-17T03:48:39.467Z,17.53
2017-08-17T03:49:39.463Z,17.49
2017-08-17T03:50:39.456Z,17.54
2017-08-17T03:51:39.449Z,17.62
2017-08-17T03:52:39.445Z,17.54
2017-08-17T03:53:39.439Z,17.51
2017-08-17T03:54:39.441Z,17.45
2017-08-17T03:55:39.426Z,17.45
2017-08-17T03:56:39.418Z,17.55
2017-08-17T03:57:39.413Z,17.47
2017-08-17T03:58:39.407Z,17.51
2017-08-17T03:59:39.404Z,17.49
2017-08-17T04:00:39.395Z,17.51
2017-08-17T04:01:39.391Z,17.47
2017-08-17T04:02:39.384Z,17.49
2017-08-17T04:03:39.383Z,17.46
2017-08-17T04:04:39.378Z,17.47
2017-08-17T04:05:39.371Z,17.47
2017-08-17T04:06:39.371Z,17.53
2017-08-17T04:07:39.359Z,17.51
2017-08-17T04:08:39.357Z,17.43
2017-08-17T04:09:39.348Z,17.42
2017-08-17T04:10:39.345Z,17.42
2017-08-17T04:11:39.334Z,17.40
2017-08-17T04:12:39.327Z,17.40
2017-08-17T04:13:39.323Z,17.40
2017-08-17T04:14:39.315Z,17.43
2017-08-17T04:15:39.313Z,17.33
2017-08-17T04:16:39.304Z,17.30
2017-08-17T04:17:39.301Z,17.30
2017-08-17T04:18:39.293Z,17.38
2017-08-17T04:19:39.292Z,17.32
2017-08-17T04:20:39.287Z,17.39
2017-08-17T04:21:39.280Z,17.42
2017-08-17T04:22:39.275Z,17.49
2017-08-17T04:23:39.270Z,17.46
2017-08-17T04:24:39.262Z,17.51
2017-08-17T04:25:39.265Z,17.49
2017-08-17T04:26:39.251Z,17.54
2017-08-17T04:27:39.591Z,17.63
2017-08-17T04:28:39.236Z,17.58
2017-08-17T04:29:39.228Z,17.58
2017-08-17T04:30:39.227Z,17.63
2017-08-17T04:31:39.218Z,17.58
2017-08-17T04:32:39.214Z,17.62
2017-08-17T04:33:39.204Z,17.76
2017-08-17T04:34:39.201Z,17.83
2017-08-17T04:35:39.201Z,17.84
2017-08-17T04:36:39.192Z,17.98
2017-08-17T04:37:39.189Z,18.02
2017-08-17T04:38:39.181Z,18.04
2017-08-17T04:39:39.176Z,18.14
2017-08-17T04:40:39.171Z,18.21
2017-08-17T04:41:39.162Z,18.21
2017-08-17T04:42:39.159Z,18.17
2017-08-17T04:43:39.149Z,18.28
2017-08-17T04:44:39.144Z,18.32
2017-08-17T04:45:39.139Z,18.41
2017-08-17T04:46:39.131Z,18.42
2017-08-17T04:47:39.133Z,18.47
2017-08-17T04:48:39.119Z,18.51
2017-08-17T04:49:39.114Z,18.60
2017-08-17T04:50:39.107Z,18.66
2017-08-17T04:51:39.107Z,18.64
2017-08-17T04:52:39.103Z,18.93
2017-08-17T04:53:39.095Z,19.21
2017-08-17T04:54:39.092Z,19.70
2017-08-17T04:55:39.085Z,20.20
2017-08-17T04:56:39.078Z,20.87
2017-08-17T04:57:39.073Z,21.90
2017-08-17T04:58:39.067Z,22.75
2017-08-17T04:59:39.058Z,23.74
2017-08-17T05:00:39.053Z,24.60
2017-08-17T05:01:39.046Z,25.17
2017-08-17T05:02:39.043Z,25.75
2017-08-17T05:03:39.036Z,26.34
2017-08-17T05:04:39.033Z,26.21
2017-08-17T05:05:39.025Z,25.78
2017-08-17T05:06:39.023Z,25.82
2017-08-17T05:07:39.024Z,26.08
2017-08-17T05:08:39.017Z,26.41
2017-08-17T05:09:39.016Z,26.64
2017-08-17T05:10:39.009Z,26.81
2017-08-17T05:11:39.006Z,26.60
2017-08-17T05:12:38.997Z,26.72
2017-08-17T05:13:38.993Z,27.48
2017-08-17T05:14:38.990Z,28.11
2017-08-17T05:15:38.992Z,28.36
2017-08-17T05:16:38.986Z,28.42
2017-08-17T05:17:38.985Z,28.69
2017-08-17T05:18:38.981Z,28.58
2017-08-17T05:19:38.980Z,28.39
2017-08-17T05:20:38.975Z,28.55
2017-08-17T05:21:38.974Z,28.72
2017-08-17T05:22:38.970Z,29.47
2017-08-17T05:23:38.989Z,29.51
2017-08-17T05:24:38.961Z,29.47
2017-08-17T05:25:38.959Z,29.52
2017-08-17T05:26:38.959Z,29.47
2017-08-17T05:27:38.958Z,29.18
2017-08-17T05:28:38.957Z,30.37
2017-08-17T05:29:38.954Z,31.00
2017-08-17T05:30:38.952Z,31.41
2017-08-17T05:31:38.955Z,31.72
2017-08-17T05:32:38.954Z,31.97
2017-08-17T05:33:38.950Z,31.91
2017-08-17T05:34:38.954Z,31.74
2017-08-17T05:35:38.950Z,31.56
2017-08-17T05:36:38.950Z,30.16
2017-08-17T05:37:38.949Z,29.20
2017-08-17T05:38:38.951Z,28.77
2017-08-17T05:39:38.945Z,27.59
2017-08-17T05:40:38.942Z,26.81
2017-08-17T05:41:38.944Z,26.41
2017-08-17T05:42:38.943Z,26.21
2017-08-17T05:43:38.941Z,26.12
2017-08-17T05:44:38.943Z,25.59
2017-08-17T05:45:38.940Z,25.14
2017-08-17T05:46:38.942Z,24.98
2017-08-17T05:47:38.946Z,24.79
2017-08-17T05:48:38.943Z,24.84
2017-08-17T05:49:38.944Z,24.86
2017-08-17T05:50:38.944Z,24.86
2017-08-17T05:51:38.943Z,25.14
2017-08-17T05:52:38.938Z,25.57
2017-08-17T05:53:38.940Z,26.00
2017-08-17T05:54:38.938Z,26.20
2017-08-17T05:55:38.943Z,26.12
2017-08-17T05:56:38.933Z,25.89
2017-08-17T05:57:38.930Z,25.60
2017-08-17T05:58:38.931Z,25.57
2017-08-17T05:59:38.931Z,25.64
2017-08-17T06:00:38.934Z,25.82
2017-08-17T06:01:38.928Z,26.01
2017-08-17T06:02:38.924Z,26.24
2017-08-17T06:03:38.928Z,26.09
2017-08-17T06:04:38.927Z,26.32
2017-08-17T06:05:38.924Z,26.81
2017-08-17T06:06:38.926Z,27.05
2017-08-17T06:07:38.922Z,26.91
2017-08-17T06:08:38.923Z,26.72
2017-08-17T06:09:38.918Z,26.31
2017-08-17T06:10:38.920Z,26.01
2017-08-17T06:11:38.916Z,25.71
2017-08-17T06:12:38.910Z,25.23
2017-08-17T06:13:38.921Z,25.02
2017-08-17T06:14:38.909Z,24.71
2017-08-17T06:15:38.912Z,24.30
2017-08-17T06:16:38.913Z,24.30
2017-08-17T06:17:38.909Z,24.46
2017-08-17T06:18:38.910Z,24.44
2017-08-17T06:19:38.904Z,24.26
2017-08-17T06:20:38.900Z,24.39
2017-08-17T06:21:38.901Z,24.36
2017-08-17T06:22:38.897Z,24.06
2017-08-17T06:23:39.047Z,24.00
2017-08-17T06:24:38.894Z,23.93
2017-08-17T06:25:38.895Z,24.06
2017-08-17T06:26:38.889Z,24.00
2017-08-17T06:27:38.893Z,23.72
2017-08-17T06:28:38.893Z,23.45
2017-08-17T06:29:38.889Z,23.59
2017-08-17T06:30:38.890Z,23.56
2017-08-17T06:31:38.889Z,23.50
2017-08-17T06:32:38.883Z,23.54
2017-08-17T06:33:38.884Z,23.69
2017-08-17T06:34:38.885Z,23.44
2017-08-17T06:35:38.876Z,23.14
2017-08-17T06:36:38.875Z,23.14
2017-08-17T06:37:38.872Z,23.38
2017-08-17T06:38:38.872Z,23.39
2017-08-17T06:39:38.867Z,23.45
2017-08-17T06:40:38.869Z,23.54
2017-08-17T06:41:38.863Z,23.59
2017-08-17T06:42:38.864Z,23.31
2017-08-17T06:43:38.866Z,23.11
2017-08-17T06:44:38.861Z,22.96
2017-08-17T06:45:38.862Z,22.96
2017-08-17T06:46:38.857Z,22.75
2017-08-17T06:47:38.854Z,22.63
2017-08-17T06:48:38.854Z,22.60
2017-08-17T06:49:38.850Z,22.57
2017-08-17T06:50:38.851Z,22.70
2017-08-17T06:51:38.844Z,22.75
2017-08-17T06:52:38.839Z,22.74
2017-08-17T06:53:38.839Z,22.59
2017-08-17T06:54:38.835Z,22.54
2017-08-17T06:55:38.834Z,22.45
2017-08-17T06:56:38.830Z,22.36
2017-08-17T06:57:38.829Z,22.30
2017-08-17T06:58:38.825Z,22.21
2017-08-17T06:59:38.827Z,22.14
2017-08-17T07:00:38.825Z,22.08
2017-08-17T07:01:38.821Z,22.09
2017-08-17T07:02:38.821Z,22.14
2017-08-17T07:03:38.819Z,22.24
2017-08-17T07:04:38.818Z,22.15
2017-08-17T07:05:38.813Z,22.21
2017-08-17T07:06:38.811Z,22.21
2017-08-17T07:07:38.800Z,22.33
2017-08-17T07:08:39.300Z,22.27
2017-08-17T07:09:38.796Z,22.39
2017-08-17T07:10:38.794Z,22.31
2017-08-17T07:11:38.791Z,22.20
2017-08-17T07:12:38.788Z,22.12
2017-08-17T07:13:38.785Z,22.08
2017-08-17T07:14:38.785Z,22.29
2017-08-17T07:15:38.786Z,22.20
2017-08-17T07:16:38.779Z,22.27
2017-08-17T07:17:38.801Z,22.24
2017-08-17T07:18:38.774Z,22.26
2017-08-17T07:19:38.766Z,22.35
2017-08-17T07:20:38.766Z,22.57
2017-08-17T07:21:38.762Z,22.78
2017-08-17T07:22:38.761Z,22.74
2017-08-17T07:23:38.762Z,22.82
2017-08-17T07:24:38.756Z,22.86
2017-08-17T07:25:38.755Z,22.88
2017-08-17T07:26:38.752Z,23.01
2017-08-17T07:27:38.750Z,23.39
2017-08-17T07:28:38.745Z,23.52
2017-08-17T07:29:38.744Z,23.78
2017-08-17T07:30:38.738Z,24.15
2017-08-17T07:31:38.733Z,24.71
2017-08-17T07:32:38.731Z,25.17
2017-08-17T07:33:38.725Z,25.81
2017-08-17T07:34:38.726Z,26.31
2017-08-17T07:35:38.723Z,26.50
2017-08-17T07:36:38.719Z,26.65
2017-08-17T07:37:38.719Z,26.39
2017-08-17T07:38:38.715Z,26.81
2017-08-17T07:39:38.717Z,27.38
2017-08-17T07:40:38.715Z,27.80
2017-08-17T07:41:38.715Z,28.15
2017-08-17T07:42:38.713Z,27.87
2017-08-17T07:43:38.709Z,27.52
2017-08-17T07:44:38.710Z,26.97
2017-08-17T07:45:38.706Z,27.02
2017-08-17T07:46:38.716Z,26.38
2017-08-17T07:47:38.702Z,26.36
2017-08-17T07:48:38.699Z,26.08
2017-08-17T07:49:38.699Z,25.86
2017-08-17T07:50:38.698Z,25.74
2017-08-17T07:51:38.694Z,25.67
2017-08-17T07:52:38.696Z,25.90
2017-08-17T07:53:38.693Z,26.32
2017-08-17T07:54:38.695Z,26.35
2017-08-17T07:55:38.698Z,26.69
2017-08-17T07:56:38.695Z,27.12
2017-08-17T07:57:38.695Z,27.48
2017-08-17T07:58:38.711Z,27.45
2017-08-17T07:59:38.694Z,27.48
2017-08-17T08:00:38.691Z,27.83
2017-08-17T08:01:38.694Z,27.87
2017-08-17T08:02:38.691Z,27.83
2017-08-17T08:03:38.685Z,27.65
2017-08-17T08:04:38.686Z,27.18
2017-08-17T08:05:38.685Z,27.16
2017-08-17T08:06:38.687Z,26.75
2017-08-17T08:07:38.687Z,26.20
2017-08-17T08:08:38.684Z,25.86
2017-08-17T08:09:38.685Z,25.71
2017-08-17T08:10:38.684Z,25.69
2017-08-17T08:11:38.688Z,25.45
2017-08-17T08:12:38.693Z,25.19
2017-08-17T08:13:38.686Z,24.94
2017-08-17T08:14:38.689Z,24.89
2017-08-17T08:15:38.686Z,24.64
2017-08-17T08:16:38.687Z,24.60
2017-08-17T08:17:38.684Z,24.63
2017-08-17T08:18:38.687Z,24.68
2017-08-17T08:19:38.681Z,24.82
2017-08-17T08:20:38.678Z,25.05
2017-08-17T08:21:38.680Z,25.35
2017-08-17T08:22:38.677Z,25.51
2017-08-17T08:23:38.680Z,25.44
2017-08-17T08:24:38.680Z,25.30
2017-08-17T08:25:38.678Z,25.29
2017-08-17T08:26:38.683Z,25.27
2017-08-17T08:27:38.674Z,25.34
2017-08-17T08:28:38.671Z,25.30
2017-08-17T08:29:38.672Z,25.17
2017-08-17T08:30:38.672Z,25.08
2017-08-17T08:31:38.670Z,25.11
2017-08-17T08:32:38.669Z,25.36
2017-08-17T08:33:38.669Z,25.26
2017-08-17T08:34:38.666Z,25.27
2017-08-17T08:35:38.668Z,25.26
2017-08-17T08:36:38.670Z,25.34
2017-08-17T08:37:38.667Z,25.41
2017-08-17T08:38:38.668Z,25.46
2017-08-17T08:39:38.666Z,25.22
2017-08-17T08:40:38.662Z,25.17
2017-08-17T08:41:38.664Z,25.29
2017-08-17T08:42:38.661Z,25.34
2017-08-17T08:43:38.674Z,25.54
2017-08-17T08:44:38.657Z,25.59
2017-08-17T08:45:38.654Z,25.66
2017-08-17T08:46:38.655Z,25.67
2017-08-17T08:47:38.691Z,25.63
2017-08-17T08:48:38.652Z,25.74
2017-08-17T08:49:38.649Z,25.86
2017-08-17T08:50:38.652Z,25.64
2017-08-17T08:51:38.654Z,25.72
2017-08-17T08:52:38.653Z,25.64
2017-08-17T08:53:38.652Z,25.85
2017-08-17T08:54:38.654Z,25.89
2017-08-17T08:55:38.649Z,25.67
2017-08-17T08:56:38.651Z,25.85
2017-08-17T08:57:38.645Z,25.90
2017-08-17T08:58:38.646Z,25.89
2017-08-17T08:59:38.642Z,25.94
2017-08-17T09:00:38.637Z,25.81
2017-08-17T09:01:38.639Z,25.93
2017-08-17T09:02:38.637Z,25.98
2017-08-17T09:03:38.639Z,26.11
2017-08-17T09:04:38.636Z,26.36
2017-08-17T09:05:38.636Z,26.46
2017-08-17T09:06:38.632Z,26.20
2017-08-17T09:07:38.638Z,26.32
2017-08-17T09:08:38.638Z,26.69
2017-08-17T09:09:38.646Z,26.68
2017-08-17T09:10:38.637Z,26.78
2017-08-17T09:11:38.636Z,26.72
2017-08-17T09:12:38.633Z,26.84
2017-08-17T09:13:38.635Z,26.96
2017-08-17T09:14:38.633Z,26.88
2017-08-17T09:15:38.627Z,27.33
2017-08-17T09:16:38.629Z,27.68
2017-08-17T09:17:38.626Z,27.80
2017-08-17T09:18:38.628Z,27.83
2017-08-17T09:19:38.626Z,27.83
2017-08-17T09:20:38.627Z,27.86
2017-08-17T09:21:38.624Z,27.50
2017-08-17T09:22:38.628Z,27.34
2017-08-17T09:23:38.631Z,27.08
2017-08-17T09:24:38.628Z,27.06
2017-08-17T09:25:38.686Z,27.46
2017-08-17T09:26:38.630Z,27.46
2017-08-17T09:27:38.628Z,27.31
2017-08-17T09:28:38.642Z,27.40
2017-08-17T09:29:38.624Z,27.09
2017-08-17T09:30:38.639Z,26.83
2017-08-17T09:31:38.639Z,26.90
2017-08-17T09:32:38.648Z,26.98
2017-08-17T09:33:38.630Z,27.16
2017-08-17T09:34:38.629Z,27.18
2017-08-17T09:35:38.631Z,27.24
2017-08-17T09:36:38.630Z,27.38
2017-08-17T09:37:38.632Z,27.49
2017-08-17T09:38:38.641Z,27.80
2017-08-17T09:39:38.631Z,27.81
2017-08-17T09:40:38.634Z,28.23
2017-08-17T09:41:38.626Z,27.98
2017-08-17T09:42:38.657Z,28.17
2017-08-17T09:43:38.632Z,28.17
2017-08-17T09:44:38.642Z,28.32
2017-08-17T09:45:38.629Z,28.50
2017-08-17T09:46:38.628Z,28.57
2017-08-17T09:47:38.631Z,28.14
2017-08-17T09:48:38.656Z,28.54
2017-08-17T09:49:38.632Z,29.49
2017-08-17T09:50:38.636Z,29.73
2017-08-17T09:51:38.634Z,29.39
2017-08-17T09:52:38.635Z,29.35
2017-08-17T09:53:38.635Z,29.45
2017-08-17T09:54:38.638Z,29.66
2017-08-17T09:55:38.645Z,29.82
2017-08-17T09:56:38.635Z,30.46
2017-08-17T09:57:38.636Z,30.81
2017-08-17T09:58:38.641Z,31.15
2017-08-17T09:59:38.637Z,31.62
2017-08-17T10:00:38.640Z,31.52
2017-08-17T10:01:38.641Z,31.78
2017-08-17T10:02:38.643Z,31.90
2017-08-17T10:03:38.657Z,31.67
2017-08-17T10:04:38.647Z,30.83
2017-08-17T10:05:38.651Z,30.82
2017-08-17T10:06:38.651Z,30.54
2017-08-17T10:07:38.656Z,30.11
2017-08-17T10:08:38.655Z,30.01
2017-08-17T10:09:38.659Z,30.45
2017-08-17T10:10:38.660Z,30.67
2017-08-17T10:11:38.657Z,30.61
2017-08-17T10:12:38.661Z,31.04
2017-08-17T10:13:38.662Z,30.66
2017-08-17T10:14:38.666Z,30.96
2017-08-17T10:15:38.681Z,30.73
2017-08-17T10:16:38.669Z,30.60
2017-08-17T10:17:38.673Z,30.60
2017-08-17T10:18:38.672Z,30.21
2017-08-17T10:19:38.680Z,29.99
2017-08-17T10:20:38.684Z,29.82
2017-08-17T10:21:38.684Z,30.18
2017-08-17T10:22:38.689Z,31.42
2017-08-17T10:23:38.689Z,32.43
2017-08-17T10:24:38.694Z,32.25
2017-08-17T10:25:38.694Z,31.90
2017-08-17T10:26:38.698Z,31.23
2017-08-17T10:27:38.697Z,31.09
2017-08-17T10:28:38.703Z,31.30
2017-08-17T10:29:38.702Z,31.40
2017-08-17T10:30:38.701Z,31.20
2017-08-17T10:31:38.710Z,31.10
2017-08-17T10:32:38.715Z,31.15
2017-08-17T10:33:38.714Z,31.16
2017-08-17T10:34:38.719Z,31.07
2017-08-17T10:35:38.721Z,30.57
2017-08-17T10:36:38.718Z,30.51
2017-08-17T10:37:38.724Z,30.37
2017-08-17T10:38:38.725Z,30.04
2017-08-17T10:39:38.730Z,29.60
2017-08-17T10:40:38.728Z,29.36
2017-08-17T10:41:38.734Z,29.30
2017-08-17T10:42:38.735Z,28.77
2017-08-17T10:43:38.742Z,28.89
2017-08-17T10:44:38.745Z,29.11
2017-08-17T10:45:38.746Z,29.10
2017-08-17T10:46:38.751Z,28.88
2017-08-17T10:47:38.755Z,28.70
2017-08-17T10:48:38.752Z,28.73
2017-08-17T10:49:38.757Z,28.91
2017-08-17T10:50:38.757Z,29.32
2017-08-17T10:51:38.756Z,29.36
2017-08-17T10:52:38.758Z,29.92
2017-08-17T10:53:38.763Z,30.56
2017-08-17T10:54:38.764Z,31.78
2017-08-17T10:55:38.764Z,32.28
2017-08-17T10:56:38.767Z,32.80
2017-08-17T10:57:38.770Z,32.53
2017-08-17T10:58:38.772Z,33.15
2017-08-17T10:59:38.777Z,33.38
2017-08-17T11:00:38.776Z,33.40
2017-08-17T11:01:38.782Z,32.99
2017-08-17T11:02:38.783Z,32.28
2017-08-17T11:03:38.785Z,31.41
2017-08-17T11:04:38.790Z,30.79
2017-08-17T11:05:38.806Z,30.56
2017-08-17T11:06:38.797Z,30.37
2017-08-17T11:07:38.806Z,29.81
2017-08-17T11:08:38.820Z,29.66
2017-08-17T11:09:38.799Z,29.67
2017-08-17T11:10:38.801Z,29.36
2017-08-17T11:11:38.804Z,29.48
2017-08-17T11:12:38.803Z,29.76
2017-08-17T11:13:38.809Z,30.19
2017-08-17T11:14:38.810Z,30.19
2017-08-17T11:15:38.816Z,29.85
2017-08-17T11:16:38.819Z,29.03
2017-08-17T11:17:38.821Z,28.52
2017-08-17T11:18:38.830Z,28.54
2017-08-17T11:19:38.842Z,28.60
2017-08-17T11:20:38.839Z,28.74
2017-08-17T11:21:38.830Z,28.52
2017-08-17T11:22:38.832Z,28.69
2017-08-17T11:23:38.831Z,28.76
2017-08-17T11:24:38.832Z,28.69
2017-08-17T11:25:38.833Z,28.46
2017-08-17T11:26:38.837Z,28.24
2017-08-17T11:27:38.855Z,28.35
2017-08-17T11:28:38.841Z,28.43
2017-08-17T11:29:38.840Z,28.55
2017-08-17T11:30:38.843Z,28.73
2017-08-17T11:31:38.849Z,28.85
2017-08-17T11:32:38.847Z,29.33
2017-08-17T11:33:38.851Z,29.39
2017-08-17T11:34:38.852Z,29.25
2017-08-17T11:35:38.849Z,29.30
2017-08-17T11:36:38.851Z,29.26
2017-08-17T11:37:38.850Z,29.37
2017-08-17T11:38:38.854Z,29.44
2017-08-17T11:39:38.860Z,29.88
2017-08-17T11:40:38.860Z,29.92
2017-08-17T11:41:38.862Z,30.03
2017-08-17T11:42:38.862Z,29.49
2017-08-17T11:43:38.882Z,28.92
2017-08-17T11:44:38.864Z,28.74
2017-08-17T11:45:38.869Z,28.62
2017-08-17T11:46:38.868Z,28.20
2017-08-17T11:47:38.866Z,28.05
2017-08-17T11:48:38.868Z,28.27
2017-08-17T11:49:38.867Z,28.72
2017-08-17T11:50:38.874Z,28.79
2017-08-17T11:51:38.875Z,29.27
2017-08-17T11:52:38.872Z,29.67
2017-08-17T11:53:38.874Z,29.84
2017-08-17T11:54:38.875Z,29.79
2017-08-17T11:55:38.881Z,29.88
2017-08-17T11:56:38.883Z,29.84
2017-08-17T11:57:38.882Z,30.01
2017-08-17T11:58:38.885Z,30.11
2017-08-17T11:59:38.885Z,29.94
2017-08-17T12:00:38.888Z,30.07
2017-08-17T12:01:38.888Z,29.81
2017-08-17T12:02:38.891Z,29.81
2017-08-17T12:03:38.888Z,29.81
2017-08-17T12:04:38.888Z,29.79
2017-08-17T12:05:38.890Z,29.47
2017-08-17T12:06:38.893Z,29.26
2017-08-17T12:07:38.893Z,28.77
2017-08-17T12:08:38.896Z,28.65
2017-08-17T12:09:38.894Z,28.87
2017-08-17T12:10:38.898Z,29.08
2017-08-17T12:11:38.905Z,28.77
2017-08-17T12:12:38.915Z,28.40
2017-08-17T12:13:38.907Z,27.65
2017-08-17T12:14:38.907Z,27.42
2017-08-17T12:15:38.910Z,27.13
2017-08-17T12:16:38.909Z,27.08
2017-08-17T12:17:38.913Z,26.90
2017-08-17T12:18:38.912Z,26.91
2017-08-17T12:19:38.909Z,26.86
2017-08-17T12:20:38.911Z,26.65
2017-08-17T12:21:38.911Z,26.23
2017-08-17T12:22:38.912Z,26.32
2017-08-17T12:23:38.915Z,26.44
2017-08-17T12:24:38.913Z,26.23
2017-08-17T12:25:38.916Z,26.21
2017-08-17T12:26:38.914Z,26.41
2017-08-17T12:27:38.919Z,26.39
2017-08-17T12:28:38.921Z,26.31
2017-08-17T12:29:38.918Z,26.13
2017-08-17T12:30:38.922Z,26.06
2017-08-17T12:31:38.923Z,25.82
2017-08-17T12:32:38.921Z,25.82
2017-08-17T12:33:38.921Z,25.56
2017-08-17T12:34:38.923Z,25.64
2017-08-17T12:35:38.919Z,25.69
2017-08-17T12:36:38.916Z,25.57
2017-08-17T12:37:38.918Z,25.51
2017-08-17T12:38:38.916Z,25.48
2017-08-17T12:39:38.921Z,25.46
2017-08-17T12:40:38.914Z,25.59
2017-08-17T12:41:38.916Z,25.56
2017-08-17T12:42:38.916Z,25.66
2017-08-17T12:43:38.919Z,25.59
2017-08-17T12:44:38.926Z,25.76
2017-08-17T12:45:38.918Z,25.91
2017-08-17T12:46:38.920Z,25.89
2017-08-17T12:47:38.920Z,25.83
2017-08-17T12:48:38.918Z,25.94
2017-08-17T12:49:38.916Z,26.12
2017-08-17T12:50:38.970Z,26.31
2017-08-17T12:51:38.913Z,26.12
2017-08-17T12:52:38.911Z,25.89